Аэропорт: Павлодар. Павлодар

ICAO: UASP

METAR:
2018/05/20 19:30
UASP 201930Z 15004MPS CAVOK 09/03 Q1021 R21/0///70 NOSIG RMK QFE754/1006
METAR:
2018/05/04 03:06
TAF TAF UASP 040200Z 0403/041209 14012MPS 9999 BKN020CB OVC100 
      TEMPO 0403/0406 12017MPS 3100 -SHRA SCT010 OVC020CB 
      TEMPO 0406/0412 17020MPS 3100 -SHRA BKN006 OVC020CB